createdAt,value
2022-08-26T00:00:09.211Z,99733.56
2022-08-26T00:00:41.446Z,99726.56
2022-08-26T00:01:12.894Z,99731.09
2022-08-26T00:01:45.053Z,99728.59
2022-08-26T00:02:16.623Z,99730.75
2022-08-26T00:02:51.869Z,99726.91
2022-08-26T00:03:23.396Z,99731.25
2022-08-26T00:03:55.078Z,99730.25
2022-08-26T00:04:26.592Z,99727.22
2022-08-26T00:04:58.286Z,99732.22
2022-08-26T00:05:29.697Z,99737.94
2022-08-26T00:06:01.064Z,99739.97
2022-08-26T00:06:32.625Z,99731.97
2022-08-26T00:07:05.271Z,99737.38
2022-08-26T00:07:36.761Z,99731.31
2022-08-26T00:08:08.846Z,99733.03
2022-08-26T00:08:44.450Z,99731.50
2022-08-26T00:09:18.245Z,99729.50
2022-08-26T00:09:50.166Z,99732.00
2022-08-26T00:10:25.954Z,99731.16
2022-08-26T00:10:58.311Z,99728.94
2022-08-26T00:11:31.378Z,99727.47
2022-08-26T00:12:03.159Z,99735.34
2022-08-26T00:12:37.618Z,99735.53
2022-08-26T00:13:09.760Z,99732.66
2022-08-26T00:13:41.297Z,99732.97
2022-08-26T00:14:19.492Z,99733.78
2022-08-26T00:14:50.841Z,99735.31
2022-08-26T00:15:22.452Z,99731.78
2022-08-26T00:15:54.029Z,99735.31
2022-08-26T00:16:25.578Z,99732.78
2022-08-26T00:16:56.941Z,99729.47
2022-08-26T00:17:29.063Z,99732.31
2022-08-26T00:18:01.335Z,99730.28
2022-08-26T00:18:38.750Z,99731.97
2022-08-26T00:19:12.119Z,99726.78
2022-08-26T00:19:44.210Z,99723.22
2022-08-26T00:20:16.129Z,99728.25
2022-08-26T00:20:47.523Z,99724.91
2022-08-26T00:21:19.261Z,99725.56
2022-08-26T00:21:50.622Z,99725.56
2022-08-26T00:22:22.670Z,99727.44
2022-08-26T00:22:54.366Z,99726.59
2022-08-26T00:23:25.719Z,99733.63
2022-08-26T00:24:00.253Z,99728.59
2022-08-26T00:24:31.600Z,99731.63
2022-08-26T00:25:03.845Z,99728.13
2022-08-26T00:25:35.446Z,99727.28
2022-08-26T00:26:06.753Z,99728.13
2022-08-26T00:26:40.162Z,99729.63
2022-08-26T00:27:12.890Z,99730.63
2022-08-26T00:27:44.364Z,99730.47
2022-08-26T00:28:16.220Z,99729.81
2022-08-26T00:28:50.442Z,99739.50
2022-08-26T00:29:22.400Z,99732.31
2022-08-26T00:29:55.927Z,99730.63
2022-08-26T00:30:28.757Z,99733.66
2022-08-26T00:31:02.181Z,99728.94
2022-08-26T00:31:34.587Z,99736.53
2022-08-26T00:32:07.520Z,99738.38
2022-08-26T00:32:39.511Z,99734.00
2022-08-26T00:33:10.971Z,99736.69
2022-08-26T00:33:42.361Z,99736.53
2022-08-26T00:34:16.168Z,99741.06
2022-08-26T00:34:50.643Z,99736.34
2022-08-26T00:35:22.140Z,99738.38
2022-08-26T00:35:54.473Z,99733.00
2022-08-26T00:36:29.900Z,99735.03
2022-08-26T00:37:01.435Z,99738.72
2022-08-26T00:37:32.822Z,99734.91
2022-08-26T00:38:04.220Z,99736.72
2022-08-26T00:38:37.911Z,99737.75
2022-08-26T00:39:10.537Z,99738.59
2022-08-26T00:39:41.938Z,99740.91
2022-08-26T00:40:15.325Z,99733.34
2022-08-26T00:40:47.689Z,99738.91
2022-08-26T00:41:19.382Z,99737.03
2022-08-26T00:41:51.056Z,99738.91
2022-08-26T00:42:22.445Z,99737.03
2022-08-26T00:42:54.272Z,99735.03
2022-08-26T00:43:25.696Z,99735.38
2022-08-26T00:43:57.409Z,99735.06
2022-08-26T00:44:28.940Z,99742.94
2022-08-26T00:45:00.355Z,99733.88
2022-08-26T00:45:33.629Z,99730.38
2022-08-26T00:46:08.246Z,99742.09
2022-08-26T00:46:46.969Z,99736.72
2022-08-26T00:47:27.556Z,99739.72
2022-08-26T00:48:02.669Z,99728.34
2022-08-26T00:48:35.820Z,99735.22
2022-08-26T00:49:12.348Z,99742.06
2022-08-26T00:49:44.132Z,99732.53
2022-08-26T00:50:16.815Z,99733.34
2022-08-26T00:50:50.563Z,99732.34
2022-08-26T00:51:23.124Z,99735.22
2022-08-26T00:51:55.045Z,99732.69
2022-08-26T00:52:26.570Z,99734.53
2022-08-26T00:52:57.910Z,99725.81
2022-08-26T00:53:30.240Z,99733.69
2022-08-26T00:54:04.548Z,99726.47
2022-08-26T00:54:38.110Z,99733.69
2022-08-26T00:55:20.134Z,99731.34
2022-08-26T00:55:52.981Z,99733.03
2022-08-26T00:56:29.626Z,99731.19
2022-08-26T00:57:01.847Z,99731.34
2022-08-26T00:57:33.341Z,99734.03
2022-08-26T00:58:04.744Z,99732.00
2022-08-26T00:58:36.513Z,99731.03
2022-08-26T00:59:08.431Z,99731.19
2022-08-26T00:59:39.836Z,99733.03
2022-08-26T01:00:12.795Z,99734.91
2022-08-26T01:00:45.238Z,99732.22
2022-08-26T01:01:16.845Z,99732.22
2022-08-26T01:01:48.308Z,99731.53
2022-08-26T01:02:21.071Z,99734.91
2022-08-26T01:02:53.359Z,99734.91
2022-08-26T01:03:25.255Z,99727.69
2022-08-26T01:03:56.583Z,99731.19
2022-08-26T01:04:27.927Z,99735.72
2022-08-26T01:05:00.018Z,99735.91
2022-08-26T01:05:31.362Z,99739.41
2022-08-26T01:06:02.830Z,99730.38
2022-08-26T01:06:35.661Z,99735.72
2022-08-26T01:07:07.075Z,99737.59
2022-08-26T01:07:39.033Z,99731.34
2022-08-26T01:08:10.502Z,99728.69
2022-08-26T01:08:41.836Z,99734.03
2022-08-26T01:09:13.236Z,99738.41
2022-08-26T01:09:44.589Z,99732.41
2022-08-26T01:10:17.632Z,99730.72
2022-08-26T01:10:48.993Z,99733.22
2022-08-26T01:11:21.728Z,99734.22
2022-08-26T01:11:54.681Z,99729.72
2022-08-26T01:12:26.078Z,99720.81
2022-08-26T01:13:01.602Z,99727.03
2022-08-26T01:13:34.792Z,99726.34
2022-08-26T01:14:06.595Z,99724.69
2022-08-26T01:14:38.807Z,99729.88
2022-08-26T01:15:11.701Z,99731.72
2022-08-26T01:15:43.843Z,99730.06
2022-08-26T01:16:15.720Z,99728.03
2022-08-26T01:16:47.214Z,99731.53
2022-08-26T01:17:20.182Z,99735.41
2022-08-26T01:17:51.528Z,99730.88
2022-08-26T01:18:24.164Z,99729.19
2022-08-26T01:18:56.426Z,99726.34
2022-08-26T01:19:29.693Z,99729.03
2022-08-26T01:20:06.593Z,99732.41
2022-08-26T01:20:58.265Z,99739.75
2022-08-26T01:21:33.065Z,99735.41
2022-08-26T01:22:12.209Z,99727.38
2022-08-26T01:22:43.777Z,99727.38
2022-08-26T01:23:15.279Z,99724.69
2022-08-26T01:23:47.996Z,99730.88
2022-08-26T01:24:19.424Z,99732.91
2022-08-26T01:24:50.784Z,99727.53
2022-08-26T01:25:22.397Z,99738.09
2022-08-26T01:25:55.248Z,99727.38
2022-08-26T01:26:29.252Z,99732.06
2022-08-26T01:27:04.200Z,99730.22
2022-08-26T01:27:35.686Z,99733.09
2022-08-26T01:28:08.616Z,99733.91
2022-08-26T01:28:40.095Z,99726.50
2022-08-26T01:29:16.071Z,99724.00
2022-08-26T01:29:47.934Z,99726.50
2022-08-26T01:30:20.642Z,99724.69
2022-08-26T01:30:52.014Z,99732.91
2022-08-26T01:31:25.419Z,99728.38
2022-08-26T01:31:56.935Z,99719.50
2022-08-26T01:32:28.387Z,99727.38
2022-08-26T01:33:00.047Z,99723.81
2022-08-26T01:33:42.279Z,99719.50
2022-08-26T01:34:16.508Z,99719.31
2022-08-26T01:34:48.047Z,99728.38
2022-08-26T01:35:19.553Z,99721.16
2022-08-26T01:35:50.924Z,99723.81
2022-08-26T01:36:22.943Z,99726.50
2022-08-26T01:36:58.595Z,99732.72
2022-08-26T01:37:32.990Z,99719.50
2022-08-26T01:38:04.385Z,99733.09
2022-08-26T01:38:35.704Z,99728.53
2022-08-26T01:39:07.411Z,99723.16
2022-08-26T01:39:39.110Z,99732.06
2022-08-26T01:40:13.692Z,99733.09
2022-08-26T01:40:45.142Z,99722.34
2022-08-26T01:41:19.670Z,99733.09
2022-08-26T01:41:53.858Z,99731.41
2022-08-26T01:42:25.314Z,99733.09
2022-08-26T01:42:56.674Z,99726.84
2022-08-26T01:43:28.041Z,99730.41
2022-08-26T01:43:59.767Z,99740.28
2022-08-26T01:44:32.483Z,99734.06
2022-08-26T01:45:09.032Z,99738.44
2022-08-26T01:45:40.565Z,99734.91
2022-08-26T01:46:12.077Z,99733.91
2022-08-26T01:46:43.559Z,99728.72
2022-08-26T01:47:15.026Z,99733.09
2022-08-26T01:47:47.186Z,99735.75
2022-08-26T01:48:20.508Z,99741.31
2022-08-26T01:48:54.360Z,99737.59
2022-08-26T01:49:25.979Z,99737.59
2022-08-26T01:49:57.912Z,99742.97
2022-08-26T01:50:31.225Z,99744.81
2022-08-26T01:51:03.125Z,99746.66
2022-08-26T01:51:35.082Z,99739.63
2022-08-26T01:52:08.503Z,99752.03
2022-08-26T01:52:42.763Z,99753.03
2022-08-26T01:53:15.121Z,99762.28
2022-08-26T01:53:46.494Z,99762.28
2022-08-26T01:54:18.273Z,99764.97
2022-08-26T01:54:52.072Z,99771.31
2022-08-26T01:55:27.655Z,99766.78
2022-08-26T01:56:04.868Z,99769.66
2022-08-26T01:56:37.175Z,99767.81
2022-08-26T01:57:08.557Z,99763.44
2022-08-26T01:57:39.913Z,99765.13
2022-08-26T01:58:23.670Z,99757.91
2022-08-26T01:58:55.453Z,99760.59
2022-08-26T01:59:27.592Z,99762.28
2022-08-26T01:59:59.791Z,99757.91
2022-08-26T02:00:31.118Z,99757.09
2022-08-26T02:01:02.707Z,99758.91
2022-08-26T02:01:35.366Z,99759.25
2022-08-26T02:02:06.777Z,99760.09
2022-08-26T02:02:38.162Z,99765.31
2022-08-26T02:03:09.557Z,99760.75
2022-08-26T02:03:58.774Z,99763.44
2022-08-26T02:04:35.030Z,99768.00
2022-08-26T02:05:06.718Z,99764.63
2022-08-26T02:05:38.114Z,99760.94
2022-08-26T02:06:10.276Z,99766.00
2022-08-26T02:06:41.698Z,99768.66
2022-08-26T02:07:13.067Z,99754.25
2022-08-26T02:07:44.587Z,99754.25
2022-08-26T02:08:16.061Z,99751.56
2022-08-26T02:08:56.221Z,99751.38
2022-08-26T02:09:27.566Z,99748.91
2022-08-26T02:09:58.952Z,99752.56
2022-08-26T02:10:30.300Z,99751.56
2022-08-26T02:11:01.687Z,99752.22
2022-08-26T02:11:33.282Z,99755.91
2022-08-26T02:12:04.790Z,99757.59
2022-08-26T02:12:36.278Z,99755.56
2022-08-26T02:13:08.392Z,99756.41
2022-08-26T02:13:41.460Z,99758.44
2022-08-26T02:14:17.297Z,99759.44
2022-08-26T02:14:49.848Z,99760.28
2022-08-26T02:15:21.275Z,99762.97
2022-08-26T02:15:52.737Z,99758.59
2022-08-26T02:16:24.389Z,99757.59
2022-08-26T02:16:55.960Z,99764.78
2022-08-26T02:17:33.963Z,99760.28
2022-08-26T02:18:06.130Z,99762.97
2022-08-26T02:18:40.239Z,99767.47
2022-08-26T02:19:17.002Z,99770.16
2022-08-26T02:19:49.000Z,99769.16
2022-08-26T02:20:20.380Z,99771.19
2022-08-26T02:20:51.826Z,99770.34
2022-08-26T02:21:25.073Z,99765.81
2022-08-26T02:21:56.609Z,99767.47
2022-08-26T02:22:27.969Z,99770.16
2022-08-26T02:22:59.418Z,99763.97
2022-08-26T02:23:30.840Z,99768.34
2022-08-26T02:24:08.953Z,99761.28
2022-08-26T02:24:53.604Z,99759.44
2022-08-26T02:25:39.188Z,99767.47
2022-08-26T02:26:12.295Z,99769.31
2022-08-26T02:26:47.891Z,99761.28
2022-08-26T02:27:21.204Z,99764.63
2022-08-26T02:27:54.340Z,99768.34
2022-08-26T02:28:27.513Z,99762.09
2022-08-26T02:29:00.276Z,99762.97
2022-08-26T02:29:37.723Z,99767.47
2022-08-26T02:30:11.257Z,99771.19
2022-08-26T02:30:42.666Z,99764.78
2022-08-26T02:31:14.076Z,99762.09
2022-08-26T02:31:45.612Z,99767.47
2022-08-26T02:32:18.495Z,99766.66
2022-08-26T02:32:50.057Z,99757.13
2022-08-26T02:33:21.407Z,99759.97
2022-08-26T02:33:52.745Z,99759.97
2022-08-26T02:34:31.000Z,99758.28
2022-08-26T02:35:02.515Z,99758.94
2022-08-26T02:35:34.571Z,99755.25
2022-08-26T02:36:06.229Z,99754.25
2022-08-26T02:36:38.692Z,99758.75
2022-08-26T02:37:11.097Z,99759.97
2022-08-26T02:37:42.503Z,99763.97
2022-08-26T02:38:14.512Z,99756.91
2022-08-26T02:38:46.237Z,99760.31
2022-08-26T02:39:21.951Z,99754.94
2022-08-26T02:39:53.880Z,99759.28
2022-08-26T02:40:26.486Z,99760.31
2022-08-26T02:40:58.093Z,99767.31
2022-08-26T02:41:29.457Z,99761.97
2022-08-26T02:42:04.216Z,99760.97
2022-08-26T02:42:35.649Z,99760.78
2022-08-26T02:43:08.639Z,99763.66
2022-08-26T02:43:40.122Z,99768.34
2022-08-26T02:44:11.553Z,99760.97
2022-08-26T02:44:43.585Z,99763.66
2022-08-26T02:45:16.343Z,99761.63
2022-08-26T02:45:55.036Z,99761.63
2022-08-26T02:46:27.904Z,99759.97
2022-08-26T02:47:01.290Z,99766.97
2022-08-26T02:47:32.812Z,99764.31
2022-08-26T02:48:07.905Z,99765.34
2022-08-26T02:48:39.223Z,99763.47
2022-08-26T02:49:10.676Z,99765.16
2022-08-26T02:49:44.910Z,99767.84
2022-08-26T02:50:18.906Z,99761.63
2022-08-26T02:50:50.249Z,99775.72
2022-08-26T02:51:21.668Z,99767.84
2022-08-26T02:51:53.365Z,99774.03
2022-08-26T02:52:24.902Z,99769.66
2022-08-26T02:52:56.250Z,99763.31
2022-08-26T02:53:28.033Z,99768.84
2022-08-26T02:54:03.333Z,99769.84
2022-08-26T02:54:35.669Z,99771.69
2022-08-26T02:55:07.465Z,99769.84
2022-08-26T02:55:38.886Z,99767.31
2022-08-26T02:56:10.533Z,99769.00
2022-08-26T02:56:42.119Z,99774.72
2022-08-26T02:57:13.494Z,99770.19
2022-08-26T02:57:44.815Z,99766.66
2022-08-26T02:58:16.223Z,99771.03
2022-08-26T02:58:47.612Z,99773.00
2022-08-26T02:59:19.016Z,99769.34
2022-08-26T02:59:50.418Z,99761.31
2022-08-26T03:00:21.919Z,99766.66
2022-08-26T03:00:55.219Z,99764.81
2022-08-26T03:01:27.560Z,99766.66
2022-08-26T03:01:58.986Z,99757.63
2022-08-26T03:02:30.408Z,99763.00
2022-08-26T03:03:01.973Z,99764.63
2022-08-26T03:03:33.335Z,99763.00
2022-08-26T03:04:05.392Z,99762.25
2022-08-26T03:04:37.639Z,99762.13
2022-08-26T03:05:10.821Z,99762.25
2022-08-26T03:05:42.144Z,99768.66
2022-08-26T03:06:14.167Z,99756.91
2022-08-26T03:06:52.785Z,99756.91
2022-08-26T03:07:24.501Z,99762.25
2022-08-26T03:07:55.883Z,99763.97
2022-08-26T03:08:27.569Z,99769.34
2022-08-26T03:08:58.917Z,99767.63
2022-08-26T03:09:30.268Z,99763.13
2022-08-26T03:10:01.631Z,99765.97
2022-08-26T03:10:39.760Z,99764.94
2022-08-26T03:11:11.315Z,99769.34
2022-08-26T03:11:42.806Z,99767.63
2022-08-26T03:12:15.380Z,99757.94
2022-08-26T03:12:47.367Z,99756.06
2022-08-26T03:13:19.632Z,99762.25
2022-08-26T03:13:51.257Z,99764.94
2022-08-26T03:14:23.111Z,99764.94
2022-08-26T03:14:54.679Z,99759.78
2022-08-26T03:15:26.087Z,99766.97
2022-08-26T03:15:57.532Z,99764.28
2022-08-26T03:16:32.244Z,99758.28
2022-08-26T03:17:04.064Z,99762.47
2022-08-26T03:17:35.478Z,99760.63
2022-08-26T03:18:07.337Z,99763.28
2022-08-26T03:18:38.764Z,99769.50
2022-08-26T03:19:10.228Z,99764.94
2022-08-26T03:19:41.621Z,99772.16
2022-08-26T03:20:13.594Z,99766.97
2022-08-26T03:20:46.924Z,99760.78
2022-08-26T03:21:18.265Z,99762.47
2022-08-26T03:21:49.868Z,99761.59
2022-08-26T03:22:21.372Z,99761.59
2022-08-26T03:22:52.718Z,99757.44
2022-08-26T03:23:27.685Z,99769.00
2022-08-26T03:24:00.411Z,99762.63
2022-08-26T03:24:31.869Z,99764.63
2022-08-26T03:25:03.918Z,99763.63
2022-08-26T03:25:35.314Z,99770.69
2022-08-26T03:26:06.936Z,99768.00
2022-08-26T03:26:38.578Z,99773.38
2022-08-26T03:27:10.307Z,99769.00
2022-08-26T03:27:43.008Z,99772.69
2022-08-26T03:28:14.614Z,99770.00
2022-08-26T03:28:49.498Z,99767.16
2022-08-26T03:29:21.510Z,99772.50
2022-08-26T03:29:52.832Z,99765.50
2022-08-26T03:30:25.162Z,99765.31
2022-08-26T03:30:58.023Z,99762.63
2022-08-26T03:31:29.531Z,99771.50
2022-08-26T03:32:01.025Z,99762.63
2022-08-26T03:32:32.373Z,99767.16
2022-08-26T03:33:03.965Z,99768.00
2022-08-26T03:33:35.537Z,99765.50
2022-08-26T03:34:07.091Z,99771.69
2022-08-26T03:34:38.729Z,99765.31
2022-08-26T03:35:10.291Z,99768.81
2022-08-26T03:35:42.095Z,99767.16
2022-08-26T03:36:13.441Z,99768.00
2022-08-26T03:36:45.880Z,99770.69
2022-08-26T03:37:17.258Z,99769.81
2022-08-26T03:37:49.691Z,99772.50
2022-08-26T03:38:21.497Z,99768.16
2022-08-26T03:38:52.911Z,99769.81
2022-08-26T03:39:24.311Z,99773.38
2022-08-26T03:39:55.831Z,99764.63
2022-08-26T03:40:29.043Z,99774.53
2022-08-26T03:41:00.700Z,99770.84
2022-08-26T03:41:35.614Z,99768.16
2022-08-26T03:42:06.950Z,99770.84
2022-08-26T03:42:38.979Z,99768.00
2022-08-26T03:43:10.676Z,99770.00
2022-08-26T03:43:42.221Z,99776.22
2022-08-26T03:44:13.704Z,99775.19
2022-08-26T03:44:45.036Z,99776.22
2022-08-26T03:45:16.703Z,99768.34
2022-08-26T03:45:48.001Z,99771.84
2022-08-26T03:46:19.420Z,99769.16
2022-08-26T03:46:50.826Z,99769.16
2022-08-26T03:47:22.236Z,99770.00
2022-08-26T03:47:53.800Z,99769.00
2022-08-26T03:48:25.169Z,99775.03
2022-08-26T03:48:56.538Z,99769.00
2022-08-26T03:49:28.977Z,99772.50
2022-08-26T03:50:00.417Z,99770.00
2022-08-26T03:50:34.366Z,99777.03
2022-08-26T03:51:13.853Z,99775.19
2022-08-26T03:51:50.065Z,99777.69
2022-08-26T03:52:21.505Z,99776.06
2022-08-26T03:52:53.148Z,99775.19
2022-08-26T03:53:25.937Z,99773.38
2022-08-26T03:53:57.356Z,99778.72
2022-08-26T03:54:28.688Z,99767.16
2022-08-26T03:55:00.022Z,99771.69
2022-08-26T03:55:32.143Z,99773.53
2022-08-26T03:56:03.554Z,99776.06
2022-08-26T03:56:35.714Z,99781.41
2022-08-26T03:57:07.071Z,99784.09
2022-08-26T03:57:38.638Z,99778.03
2022-08-26T03:58:10.138Z,99778.91
2022-08-26T03:58:42.906Z,99774.53
2022-08-26T03:59:14.410Z,99771.03
2022-08-26T03:59:45.829Z,99780.72
2022-08-26T04:00:18.406Z,99778.22
2022-08-26T04:00:49.968Z,99787.94
2022-08-26T04:01:27.328Z,99780.72
2022-08-26T04:01:58.829Z,99778.03
2022-08-26T04:02:30.368Z,99779.06
2022-08-26T04:03:01.847Z,99779.06
2022-08-26T04:03:33.266Z,99774.69
2022-08-26T04:04:04.980Z,99774.53
2022-08-26T04:04:37.949Z,99779.91
2022-08-26T04:05:09.672Z,99786.09
2022-08-26T04:05:41.064Z,99781.75
2022-08-26T04:06:12.572Z,99778.22
2022-08-26T04:06:44.768Z,99783.41
2022-08-26T04:07:16.224Z,99776.38
2022-08-26T04:07:47.548Z,99781.75
2022-08-26T04:08:20.000Z,99772.03
2022-08-26T04:08:51.411Z,99781.06
2022-08-26T04:09:22.780Z,99778.22
2022-08-26T04:09:56.689Z,99778.22
2022-08-26T04:10:28.966Z,99780.06
2022-08-26T04:11:00.860Z,99777.38
2022-08-26T04:11:34.313Z,99776.72
2022-08-26T04:12:06.689Z,99788.28
2022-08-26T04:12:38.429Z,99783.75
2022-08-26T04:13:10.012Z,99780.06
2022-08-26T04:13:41.522Z,99783.75
2022-08-26T04:14:14.029Z,99780.22
2022-08-26T04:14:48.932Z,99781.06
2022-08-26T04:15:21.426Z,99780.22
2022-08-26T04:15:52.825Z,99779.25
2022-08-26T04:16:24.249Z,99777.38
2022-08-26T04:16:57.498Z,99778.38
2022-08-26T04:17:28.819Z,99777.38
2022-08-26T04:18:01.056Z,99774.69
2022-08-26T04:18:36.991Z,99779.25
2022-08-26T04:19:09.302Z,99776.72
2022-08-26T04:19:40.677Z,99785.59
2022-08-26T04:20:12.128Z,99781.06
2022-08-26T04:20:43.479Z,99792.66
2022-08-26T04:21:15.323Z,99785.59
2022-08-26T04:21:47.173Z,99779.41
2022-08-26T04:22:25.027Z,99776.91
2022-08-26T04:22:56.533Z,99781.06
2022-08-26T04:23:28.486Z,99775.69
2022-08-26T04:23:59.865Z,99777.72
2022-08-26T04:24:35.052Z,99777.72
2022-08-26T04:25:06.857Z,99776.72
2022-08-26T04:25:38.309Z,99773.00
2022-08-26T04:26:11.906Z,99772.19
2022-08-26T04:26:44.066Z,99781.06
2022-08-26T04:27:15.422Z,99777.38
2022-08-26T04:27:48.160Z,99771.19
2022-08-26T04:28:19.854Z,99772.84
2022-08-26T04:28:51.887Z,99777.38
2022-08-26T04:29:24.750Z,99773.88
2022-08-26T04:29:56.150Z,99777.38
2022-08-26T04:30:27.484Z,99777.38
2022-08-26T04:30:58.866Z,99780.72
2022-08-26T04:31:30.979Z,99779.06
2022-08-26T04:32:03.518Z,99781.75
2022-08-26T04:32:34.832Z,99780.72
2022-08-26T04:33:06.429Z,99778.03
2022-08-26T04:33:45.072Z,99783.41
2022-08-26T04:34:17.876Z,99780.72
2022-08-26T04:34:49.303Z,99782.56
2022-08-26T04:35:25.410Z,99781.59
2022-08-26T04:36:03.360Z,99783.41
2022-08-26T04:36:35.541Z,99781.75
2022-08-26T04:37:07.162Z,99787.13
2022-08-26T04:37:38.516Z,99785.44
2022-08-26T04:38:10.063Z,99789.09
2022-08-26T04:38:41.452Z,99789.28
2022-08-26T04:39:13.012Z,99790.13
2022-08-26T04:39:44.737Z,99783.09
2022-08-26T04:40:16.975Z,99790.13
2022-08-26T04:40:48.361Z,99788.28
2022-08-26T04:41:19.755Z,99789.09
2022-08-26T04:41:51.081Z,99777.72
2022-08-26T04:42:26.087Z,99794.84
2022-08-26T04:42:57.827Z,99792.16
2022-08-26T04:43:29.201Z,99782.44
2022-08-26T04:44:00.602Z,99786.97
2022-08-26T04:44:32.059Z,99782.75
2022-08-26T04:45:05.835Z,99788.78
2022-08-26T04:45:41.483Z,99787.97
2022-08-26T04:46:13.676Z,99796.16
2022-08-26T04:46:45.742Z,99783.41
2022-08-26T04:47:17.138Z,99782.44
2022-08-26T04:47:54.021Z,99786.97
2022-08-26T04:48:25.391Z,99784.44
2022-08-26T04:48:56.776Z,99778.91
2022-08-26T04:49:29.366Z,99789.81
2022-08-26T04:50:07.567Z,99791.63
2022-08-26T04:50:39.059Z,99792.66
2022-08-26T04:51:14.405Z,99795.19
2022-08-26T04:51:45.769Z,99791.81
2022-08-26T04:52:17.147Z,99790.47
2022-08-26T04:52:48.517Z,99795.69
2022-08-26T04:53:19.856Z,99793.84
2022-08-26T04:53:51.309Z,99792.84
2022-08-26T04:54:22.630Z,99797.19
2022-08-26T04:54:54.067Z,99799.19
2022-08-26T04:55:38.215Z,99793.84
2022-08-26T04:56:11.090Z,99795.00
2022-08-26T04:56:43.122Z,99795.69
2022-08-26T04:57:14.526Z,99798.19
2022-08-26T04:57:47.084Z,99799.03
2022-08-26T04:58:18.870Z,99795.19
2022-08-26T04:58:50.294Z,99801.88
2022-08-26T04:59:21.735Z,99804.22
2022-08-26T04:59:53.134Z,99798.19
2022-08-26T05:00:24.636Z,99809.59
2022-08-26T05:00:57.645Z,99807.72
2022-08-26T05:01:29.313Z,99809.25
2022-08-26T05:02:00.737Z,99808.59
2022-08-26T05:02:33.148Z,99810.25
2022-08-26T05:03:04.575Z,99807.56
2022-08-26T05:03:37.075Z,99811.94
2022-08-26T05:04:08.559Z,99805.06
2022-08-26T05:04:40.102Z,99805.06
2022-08-26T05:05:13.199Z,99806.75
2022-08-26T05:05:44.858Z,99808.94
2022-08-26T05:06:16.538Z,99811.28
2022-08-26T05:06:50.513Z,99808.44
2022-08-26T05:07:23.375Z,99813.78
2022-08-26T05:07:55.119Z,99805.38
2022-08-26T05:08:26.862Z,99811.44
2022-08-26T05:08:58.994Z,99812.09
2022-08-26T05:09:30.388Z,99811.59
2022-08-26T05:10:02.130Z,99812.28
2022-08-26T05:10:38.153Z,99817.47
2022-08-26T05:11:09.637Z,99811.59
2022-08-26T05:11:41.070Z,99811.28
2022-08-26T05:12:12.814Z,99809.59
2022-08-26T05:12:44.493Z,99815.63
2022-08-26T05:13:20.569Z,99803.22
2022-08-26T05:13:52.043Z,99805.75
2022-08-26T05:14:23.498Z,99807.56
2022-08-26T05:14:54.978Z,99811.28
2022-08-26T05:15:26.358Z,99814.94
2022-08-26T05:16:01.771Z,99810.59
2022-08-26T05:16:33.173Z,99804.88
2022-08-26T05:17:04.806Z,99809.91
2022-08-26T05:17:36.470Z,99811.59
2022-08-26T05:18:07.946Z,99813.09
2022-08-26T05:18:39.587Z,99811.28
2022-08-26T05:19:11.057Z,99808.44
2022-08-26T05:19:42.842Z,99807.56
2022-08-26T05:20:14.458Z,99808.44
2022-08-26T05:20:47.812Z,99812.09
2022-08-26T05:21:20.245Z,99811.28
2022-08-26T05:21:51.685Z,99809.25
2022-08-26T05:22:23.023Z,99807.56
2022-08-26T05:22:54.755Z,99807.91
2022-08-26T05:23:26.106Z,99806.06
2022-08-26T05:23:57.532Z,99809.41
2022-08-26T05:24:28.907Z,99810.91
2022-08-26T05:25:00.797Z,99814.63
2022-08-26T05:25:32.093Z,99809.25
2022-08-26T05:26:06.459Z,99810.91
2022-08-26T05:26:37.822Z,99816.28
2022-08-26T05:27:11.726Z,99812.59
2022-08-26T05:27:43.923Z,99812.75
2022-08-26T05:28:16.177Z,99809.09
2022-08-26T05:28:47.595Z,99807.06
2022-08-26T05:29:19.419Z,99814.13
2022-08-26T05:29:54.510Z,99814.13
2022-08-26T05:30:26.077Z,99810.25
2022-08-26T05:30:57.476Z,99813.78
2022-08-26T05:31:30.109Z,99812.94
2022-08-26T05:32:01.591Z,99810.25
2022-08-26T05:32:33.856Z,99816.09
2022-08-26T05:33:05.351Z,99815.28
2022-08-26T05:33:36.709Z,99817.13
2022-08-26T05:34:12.636Z,99814.44
2022-08-26T05:34:44.023Z,99816.47
2022-08-26T05:35:15.846Z,99817.13
2022-08-26T05:35:47.295Z,99814.63
2022-08-26T05:36:19.551Z,99818.94
2022-08-26T05:36:50.913Z,99814.44
2022-08-26T05:37:22.286Z,99813.59
2022-08-26T05:37:53.845Z,99823.66
2022-08-26T05:38:25.198Z,99816.28
2022-08-26T05:39:02.035Z,99817.97
2022-08-26T05:39:33.415Z,99818.94
2022-08-26T05:40:06.403Z,99819.66
2022-08-26T05:40:38.827Z,99819.81
2022-08-26T05:41:14.124Z,99827.00
2022-08-26T05:41:47.952Z,99817.28
2022-08-26T05:42:19.316Z,99821.63
2022-08-26T05:42:50.636Z,99825.00
2022-08-26T05:43:24.014Z,99826.00
2022-08-26T05:43:55.769Z,99822.50
2022-08-26T05:44:27.171Z,99827.38
2022-08-26T05:44:58.546Z,99827.00
2022-08-26T05:45:29.934Z,99825.00
2022-08-26T05:46:05.738Z,99826.84
2022-08-26T05:46:37.675Z,99829.50
2022-08-26T05:47:09.070Z,99836.91
2022-08-26T05:47:40.408Z,99832.72
2022-08-26T05:48:12.222Z,99828.03
2022-08-26T05:48:44.429Z,99833.22
2022-08-26T05:49:16.022Z,99834.03
2022-08-26T05:49:51.341Z,99832.19
2022-08-26T05:50:23.191Z,99830.38
2022-08-26T05:50:55.097Z,99836.56
2022-08-26T05:51:26.473Z,99840.41
2022-08-26T05:51:57.888Z,99838.09
2022-08-26T05:52:29.529Z,99839.75
2022-08-26T05:53:00.941Z,99835.56
2022-08-26T05:53:33.474Z,99839.75
2022-08-26T05:54:05.829Z,99845.09
2022-08-26T05:54:38.737Z,99834.88
2022-08-26T05:55:10.124Z,99841.25
2022-08-26T05:55:42.163Z,99838.59
2022-08-26T05:56:13.978Z,99848.44
2022-08-26T05:56:45.331Z,99847.63
2022-08-26T05:57:17.739Z,99849.97
2022-08-26T05:57:49.951Z,99853.47
2022-08-26T05:58:22.130Z,99847.13
2022-08-26T05:58:53.767Z,99848.81
2022-08-26T05:59:25.293Z,99845.09
2022-08-26T05:59:58.578Z,99841.44
2022-08-26T06:00:29.955Z,99845.09
2022-08-26T06:01:07.419Z,99848.81
2022-08-26T06:01:38.821Z,99859.19
2022-08-26T06:02:10.224Z,99864.53
2022-08-26T06:02:41.670Z,99857.53
2022-08-26T06:03:13.119Z,99847.63
2022-08-26T06:03:45.048Z,99854.84
2022-08-26T06:04:16.870Z,99860.19
2022-08-26T06:04:51.491Z,99855.84
2022-08-26T06:05:23.292Z,99856.00
2022-08-26T06:05:54.985Z,99855.00
2022-08-26T06:06:28.029Z,99856.00
2022-08-26T06:07:00.761Z,99849.81
2022-08-26T06:07:32.286Z,99847.94
2022-08-26T06:08:03.931Z,99854.50
2022-08-26T06:08:35.723Z,99853.47
2022-08-26T06:09:10.925Z,99855.84
2022-08-26T06:09:42.663Z,99857.53
2022-08-26T06:10:32.471Z,99856.84
2022-08-26T06:11:05.302Z,99861.19
2022-08-26T06:11:36.905Z,99857.53
2022-08-26T06:12:08.274Z,99854.19
2022-08-26T06:13:14.261Z,99852.97
2022-08-26T06:13:46.835Z,99855.84
2022-08-26T06:14:25.955Z,99857.53
2022-08-26T06:15:04.597Z,99861.69
2022-08-26T06:15:43.215Z,99860.69
2022-08-26T06:16:17.494Z,99856.16
2022-08-26T06:16:55.375Z,99859.19
2022-08-26T06:17:40.802Z,99857.19
2022-08-26T06:18:28.970Z,99858.50
2022-08-26T06:19:19.875Z,99868.75
2022-08-26T07:24:40.126Z,99888.69
2022-08-26T07:25:37.065Z,99887.00
2022-08-26T07:26:25.864Z,99885.81
2022-08-26T07:27:09.692Z,99885.00
2022-08-26T08:34:30.464Z,99912.16
2022-08-26T08:35:14.905Z,99920.34
2022-08-26T08:35:50.169Z,99919.19
2022-08-26T08:36:35.901Z,99916.53
2022-08-26T08:37:20.552Z,99917.50